Time;durP1;ratioP1;P1;durP2;ratioP2;P2;SDS_P1;SDS_P2;PMS_P1;PMS_P2;Temp;Humidity;BMP_temperature;BMP_pressure;BME280_temperature;BME280_humidity;BME280_pressure;Samples;Min_cycle;Max_cycle;Signal;HPM_P1;HPM_P2
2023/09/05 00:00:39;;;;;;;5.40;2.83;;;;;;;19.33;44.38;100633.31;7684854;32;40779;-82
2023/09/05 00:04:55;;;;;;;5.80;2.87;;;;;;;19.43;44.28;100632.28;7684436;32;38932;-82
2023/09/05 00:09:12;;;;;;;5.40;3.03;;;;;;;19.25;44.62;100631.31;7684644;32;37726;-82
2023/09/05 00:13:29;;;;;;;5.72;2.62;;;;;;;19.19;44.51;100630.56;7684631;32;40033;-82
2023/09/05 00:17:45;;;;;;;4.47;2.40;;;;;;;19.14;44.76;100620.47;7684587;32;40548;-82
2023/09/05 00:22:01;;;;;;;3.78;2.50;;;;;;;19.41;44.34;100616.00;7684450;32;38725;-82
2023/09/05 00:26:17;;;;;;;4.57;2.97;;;;;;;19.07;45.01;100609.00;7684140;32;36910;-82
2023/09/05 00:30:34;;;;;;;6.12;3.03;;;;;;;19.00;44.92;100608.59;7684310;32;39386;-82
2023/09/05 00:34:51;;;;;;;5.25;2.70;;;;;;;19.14;44.68;100603.88;7683024;32;39662;-82
2023/09/05 00:39:07;;;;;;;3.87;2.62;;;;;;;18.99;44.65;100595.94;7684112;32;38232;-82
2023/09/05 00:43:23;;;;;;;4.37;2.50;;;;;;;18.93;45.06;100591.62;7683951;32;36924;-82
2023/09/05 00:47:40;;;;;;;5.50;3.00;;;;;;;18.94;45.68;100594.06;7684084;32;39765;-82
2023/09/05 00:52:00;;;;;;;6.45;2.92;;;;;;;18.92;46.16;100598.25;7683637;32;40652;-82
2023/09/05 00:56:17;;;;;;;5.22;2.65;;;;;;;18.87;46.69;100585.41;7683647;32;38601;-83
2023/09/05 01:00:33;;;;;;;5.75;2.78;;;;;;;18.87;46.38;100590.09;7683752;32;37280;-82
2023/09/05 01:04:49;;;;;;;4.22;2.65;;;;;;;18.58;46.97;100580.97;7683901;32;39956;-82
2023/09/05 01:09:33;;;;;;;4.75;2.80;;;;;;;18.70;46.85;100577.69;7683412;32;40801;-83
2023/09/05 01:13:50;;;;;;;4.12;2.70;;;;;;;18.69;46.80;100575.22;7682885;32;37941;-82
2023/09/05 01:18:06;;;;;;;5.82;2.60;;;;;;;18.51;47.25;100571.47;7682220;32;37010;-82
2023/09/05 01:22:24;;;;;;;6.62;2.40;;;;;;;18.48;47.45;100569.31;7683288;32;39212;-82
2023/09/05 01:26:41;;;;;;;5.05;2.80;;;;;;;18.43;47.31;100578.50;7682149;32;39511;-83
2023/09/05 01:30:57;;;;;;;4.22;2.72;;;;;;;18.13;48.09;100574.38;7683112;32;37948;-84
2023/09/05 01:35:14;;;;;;;5.37;2.85;;;;;;;18.33;47.56;100568.50;7681665;32;36937;-83
2023/09/05 01:39:30;;;;;;;5.18;2.75;;;;;;;18.14;47.37;100564.97;7682562;32;39284;-82
2023/09/05 01:43:46;;;;;;;7.75;2.78;;;;;;;18.28;46.51;100553.94;7683101;32;40076;-83
2023/09/05 01:48:02;;;;;;;3.67;2.70;;;;;;;18.16;46.50;100569.06;7686265;32;37943;-83
2023/09/05 01:52:19;;;;;;;4.07;2.60;;;;;;;18.07;47.12;100570.88;7685951;32;37602;-82
2023/09/05 01:56:35;;;;;;;4.43;2.30;;;;;;;18.23;48.41;100571.44;7686334;32;39377;-85
2023/09/05 02:00:51;;;;;;;4.03;2.70;;;;;;;18.15;48.11;100567.41;7686188;32;40794;-82
2023/09/05 02:05:08;;;;;;;4.68;2.85;;;;;;;18.22;48.05;100577.25;7686051;32;38827;-82
2023/09/05 02:09:25;;;;;;;3.75;2.30;;;;;;;18.03;48.06;100580.88;7685983;32;36898;-83
2023/09/05 02:13:41;;;;;;;4.65;2.72;;;;;;;18.10;47.79;100580.50;7685845;32;39450;-82
2023/09/05 02:18:00;;;;;;;4.47;2.60;;;;;;;18.25;46.87;100574.72;7686033;32;39923;-82
2023/09/05 02:22:16;;;;;;;7.28;2.72;;;;;;;18.33;45.96;100570.41;7685980;32;38652;-83
2023/09/05 02:26:33;;;;;;;3.90;2.47;;;;;;;18.08;46.09;100566.19;7685938;32;36799;-83
2023/09/05 02:30:50;;;;;;;6.10;2.47;;;;;;;18.32;45.38;100577.88;7685692;32;39170;-82
2023/09/05 02:35:06;;;;;;;5.22;2.65;;;;;;;18.09;46.18;100576.09;7685725;32;41127;-82
2023/09/05 02:39:22;;;;;;;5.28;2.30;;;;;;;18.27;46.40;100575.22;7685682;32;37861;-82
2023/09/05 02:43:39;;;;;;;5.15;2.67;;;;;;;18.33;46.21;100567.66;7685599;32;36827;-82
2023/09/05 02:47:56;;;;;;;5.45;2.53;;;;;;;17.94;46.57;100578.00;7685306;32;40069;-82
2023/09/05 02:52:12;;;;;;;3.80;2.33;;;;;;;18.11;46.10;100566.41;7685498;32;39941;-82
2023/09/05 02:56:28;;;;;;;9.23;2.97;;;;;;;17.96;46.71;100561.97;7684833;32;37864;-82
2023/09/05 03:00:47;;;;;;;6.90;2.78;;;;;;;18.11;46.17;100571.91;7685528;32;36804;-82
2023/09/05 03:05:05;;;;;;;4.50;2.75;;;;;;;17.96;46.45;100564.72;7685548;32;40087;-83
2023/09/05 03:09:22;;;;;;;5.18;2.75;;;;;;;18.05;46.19;100570.38;7685357;32;40863;-82
2023/09/05 03:13:38;;;;;;;4.65;2.53;;;;;;;18.16;45.87;100579.28;7685075;32;37995;-82
2023/09/05 03:17:54;;;;;;;4.35;2.30;;;;;;;18.18;45.79;100571.53;7685340;32;37108;-82
2023/09/05 03:22:10;;;;;;;6.62;2.95;;;;;;;18.11;45.97;100582.13;7685307;32;40348;-82
2023/09/05 03:26:26;;;;;;;4.57;2.83;;;;;;;18.13;45.95;100577.16;7685274;32;40666;-83
2023/09/05 03:30:43;;;;;;;4.65;2.87;;;;;;;18.16;45.84;100579.28;7684881;32;37874;-83
2023/09/05 03:34:59;;;;;;;5.53;2.72;;;;;;;18.34;45.21;100581.16;7683990;32;37007;-82
2023/09/05 03:39:16;;;;;;;5.87;2.60;;;;;;;18.29;45.56;100588.72;7685207;32;39217;-82
2023/09/05 03:43:32;;;;;;;5.43;2.70;;;;;;;18.27;45.94;100593.72;7684896;32;40025;-82
2023/09/05 03:47:48;;;;;;;4.45;2.60;;;;;;;18.22;46.28;100588.28;7685023;32;37917;-83
2023/09/05 03:52:15;;;;;;;5.80;2.50;;;;;;;18.15;46.16;100588.69;7684718;32;37035;-82
2023/09/05 03:56:32;;;;;;;5.12;2.62;;;;;;;18.06;46.08;100596.84;7684953;32;40065;-83
2023/09/05 04:00:48;;;;;;;3.58;2.40;;;;;;;18.16;46.16;100606.87;7684875;32;40041;-83
2023/09/05 04:05:05;;;;;;;5.65;2.60;;;;;;;17.78;47.14;100607.75;7685021;32;38491;-82
2023/09/05 04:09:21;;;;;;;3.87;2.70;;;;;;;18.03;46.58;100611.25;7684488;32;36883;-82
2023/09/05 04:13:37;;;;;;;6.82;2.83;;;;;;;17.78;47.18;100610.50;7684357;32;39984;-82
2023/09/05 04:17:54;;;;;;;6.25;2.60;;;;;;;17.90;46.72;100615.59;7684381;32;40890;-83
2023/09/05 04:22:10;;;;;;;4.85;2.62;;;;;;;17.94;46.37;100611.09;7684622;32;37992;-81
2023/09/05 04:26:28;;;;;;;4.18;2.70;;;;;;;17.94;46.80;100621.34;7684450;32;36909;-83
2023/09/05 04:30:45;;;;;;;4.57;2.40;;;;;;;17.94;46.78;100621.34;7684397;32;38408;-83
2023/09/05 04:35:02;;;;;;;4.18;2.67;;;;;;;18.01;46.32;100622.56;7684292;32;39778;-83
2023/09/05 04:39:18;;;;;;;4.00;2.53;;;;;;;17.99;46.19;100630.34;7683747;32;37771;-82
2023/09/05 04:43:35;;;;;;;4.93;2.37;;;;;;;18.06;46.43;100623.59;7676658;32;234599;-82
2023/09/05 04:47:52;;;;;;;4.50;2.55;;;;;;;17.94;46.91;100621.34;7683909;32;39430;-82
2023/09/05 04:52:11;;;;;;;3.75;2.40;;;;;;;18.17;45.72;100627.84;7683079;32;40869;-74
2023/09/05 04:56:27;;;;;;;3.58;2.42;;;;;;;18.43;48.49;100627.37;7682787;32;37980;-75
2023/09/05 05:00:43;;;;;;;5.68;2.80;;;;;;;18.46;47.29;100632.28;7678910;32;37066;-76
2023/09/05 05:05:00;;;;;;;5.15;2.60;;;;;;;18.72;46.98;100638.97;7683451;32;39384;-74
2023/09/05 05:09:16;;;;;;;5.45;2.33;;;;;;;18.85;45.41;100647.59;7683296;32;40462;-81
2023/09/05 05:13:33;;;;;;;4.60;2.60;;;;;;;19.03;44.30;100635.62;7682157;32;37644;-79
2023/09/05 05:17:50;;;;;;;4.85;2.30;;;;;;;19.00;44.29;100644.53;7683379;32;37108;-79
2023/09/05 05:22:06;;;;;;;5.53;2.70;;;;;;;19.06;44.60;100637.78;7686299;32;40007;-80
2023/09/05 05:26:23;;;;;;;4.90;2.40;;;;;;;19.06;44.36;100635.00;7686296;32;40831;-80
2023/09/05 05:30:39;;;;;;;4.65;2.60;;;;;;;19.11;44.11;100640.44;7686222;32;38665;-79
2023/09/05 05:34:56;;;;;;;5.10;2.17;;;;;;;19.16;44.96;100638.66;7686413;32;37372;-79
2023/09/05 05:39:13;;;;;;;3.62;2.50;;;;;;;19.38;44.16;100641.50;7685901;32;39359;-79
2023/09/05 05:43:29;;;;;;;5.60;2.28;;;;;;;19.56;43.71;100641.66;7686123;32;39740;-81
2023/09/05 05:47:45;;;;;;;4.43;2.53;;;;;;;19.52;44.06;100641.47;7686145;32;38726;-81
2023/09/05 05:52:02;;;;;;;5.85;2.37;;;;;;;19.77;43.22;100637.34;7686180;32;37892;-81
2023/09/05 05:56:18;;;;;;;7.00;3.62;;;;;;;19.81;43.55;100632.78;7686117;32;39458;-83
2023/09/05 06:00:34;;;;;;;5.32;3.20;;;;;;;19.62;45.47;100643.19;7685369;32;39731;-73
2023/09/05 06:04:51;;;;;;;6.82;2.80;;;;;;;19.63;46.32;100631.81;7686086;32;38689;-81
2023/09/05 06:09:07;;;;;;;5.85;3.08;;;;;;;19.96;46.03;100637.16;7681647;32;37074;-81
2023/09/05 06:13:23;;;;;;;4.28;2.72;;;;;;;19.65;47.79;100634.28;7685894;32;40125;-82
2023/09/05 06:17:40;;;;;;;4.00;2.67;;;;;;;20.13;46.63;100633.69;7685895;32;39899;-82
2023/09/05 06:21:58;;;;;;;8.68;2.85;;;;;;;20.24;45.74;100643.34;7685816;32;37940;-75
2023/09/05 06:26:14;;;;;;;6.50;2.67;;;;;;;20.16;45.21;100652.44;7685881;32;37197;-86
2023/09/05 06:30:30;;;;;;;9.35;2.85;;;;;;;20.36;45.54;100658.59;7684548;32;39260;-84
2023/09/05 06:34:47;;;;;;;9.73;2.78;;;;;;;20.71;45.03;100658.78;7685684;32;39959;-86
2023/09/05 06:39:04;;;;;;;5.68;2.50;;;;;;;20.82;43.27;100660.16;7679397;32;38670;-83
2023/09/05 06:43:20;;;;;;;4.22;2.40;;;;;;;20.69;42.97;100655.53;7682526;32;37110;-82
2023/09/05 06:47:36;;;;;;;3.62;2.20;;;;;;;20.87;42.63;100650.84;7684521;32;39419;-83
2023/09/05 06:51:52;;;;;;;3.15;2.30;;;;;;;20.58;42.74;100658.53;7684118;32;39745;-82
2023/09/05 06:56:09;;;;;;;5.22;2.22;;;;;;;20.48;44.79;100650.50;7685304;32;38650;-82
2023/09/05 07:00:27;;;;;;;3.87;2.40;;;;;;;20.67;44.54;100653.06;7683854;32;37304;-83
2023/09/05 07:04:44;;;;;;;5.97;2.50;;;;;;;20.70;42.86;100643.31;7684507;32;38349;-82
2023/09/05 07:09:00;;;;;;;15.30;3.30;;;;;;;21.19;41.90;100635.78;7684311;32;40768;-86
2023/09/05 07:13:16;;;;;;;7.12;2.72;;;;;;;21.61;42.11;100636.22;7684397;32;38024;-85
2023/09/05 07:17:32;;;;;;;4.60;2.20;;;;;;;21.56;41.50;100644.72;7685324;32;37907;-79
2023/09/05 07:21:49;;;;;;;3.92;2.30;;;;;;;21.52;41.88;100644.50;7685199;32;39332;-81
2023/09/05 07:26:06;;;;;;;4.15;2.20;;;;;;;21.88;40.76;100650.91;7685016;32;40732;-82
2023/09/05 07:30:22;;;;;;;4.10;2.30;;;;;;;22.29;40.46;100644.81;7685101;32;37976;-84
2023/09/05 07:34:38;;;;;;;6.65;2.75;;;;;;;22.76;37.55;100644.03;7684722;32;36882;-84
2023/09/05 07:38:55;;;;;;;6.07;2.37;;;;;;;22.70;38.27;100648.16;7684563;32;39976;-75
2023/09/05 07:43:11;;;;;;;3.67;2.17;;;;;;;23.34;38.01;100649.16;7684573;32;39954;-73
2023/09/05 07:47:27;;;;;;;4.78;2.37;;;;;;;23.21;37.84;100639.91;7684821;32;38017;-74
2023/09/05 07:51:44;;;;;;;2.47;1.98;;;;;;;23.42;37.52;100645.47;7684734;32;37164;-73
2023/09/05 07:56:00;;;;;;;5.45;2.22;;;;;;;23.80;37.00;100650.94;7684632;32;39567;-72
2023/09/05 08:00:17;;;;;;;3.65;2.30;;;;;;;23.95;36.50;100662.62;7684897;32;40699;-75
2023/09/05 08:04:33;;;;;;;9.25;2.70;;;;;;;24.17;36.01;100658.66;7684665;32;38820;-74
2023/09/05 08:08:50;;;;;;;4.75;2.15;;;;;;;24.39;35.14;100646.28;7684735;32;37126;-74
2023/09/05 08:13:07;;;;;;;4.25;2.00;;;;;;;24.03;36.49;100647.81;7683679;32;40205;-76
2023/09/05 08:17:23;;;;;;;3.25;2.00;;;;;;;24.58;35.29;100634.63;7684446;32;40834;-74
2023/09/05 08:21:39;;;;;;;4.65;2.37;;;;;;;24.86;34.78;100645.91;7673817;32;38100;-73
2023/09/05 08:25:57;;;;;;;4.60;2.12;;;;;;;25.15;33.75;100640.44;7670242;32;37330;-76
2023/09/05 08:30:15;;;;;;;4.20;2.40;;;;;;;25.14;34.84;100642.41;7682683;32;38325;-76
2023/09/05 08:34:32;;;;;;;4.65;2.20;;;;;;;25.31;34.50;100638.59;7684058;32;39869;-76
2023/09/05 08:38:48;;;;;;;5.95;2.60;;;;;;;25.29;33.85;100640.94;7682545;32;37827;-75
2023/09/05 08:43:06;;;;;;;5.70;2.40;;;;;;;25.44;33.55;100631.84;7683921;32;36949;-75
2023/09/05 08:47:22;;;;;;;4.45;2.25;;;;;;;25.85;33.69;100632.63;7681836;32;39447;-70
2023/09/05 08:51:43;;;;;;;4.57;2.37;;;;;;;25.76;33.54;100619.97;7679317;32;41381;-77
2023/09/05 08:56:01;;;;;;;4.53;2.17;;;;;;;25.81;33.85;100617.75;7681718;32;38540;-75
2023/09/05 09:00:18;;;;;;;5.25;2.60;;;;;;;26.19;33.46;100608.03;7681809;32;37698;-76
2023/09/05 09:04:47;;;;;;;4.20;2.22;;;;;;;26.21;33.24;100614.06;7681766;32;39379;-75
2023/09/05 09:09:04;;;;;;;6.25;2.30;;;;;;;26.65;32.26;100592.84;7680121;32;40963;-76
2023/09/05 09:13:21;;;;;;;2.97;2.12;;;;;;;26.90;31.42;100599.06;7671158;32;37947;-76
2023/09/05 09:17:47;;;;;;;3.97;2.15;;;;;;;26.99;31.42;100602.47;7671012;32;37142;-74
2023/09/05 09:22:05;;;;;;;3.30;2.28;;;;;;;27.02;31.19;100598.12;7670261;32;40260;-77
2023/09/05 09:26:21;;;;;;;5.72;2.40;;;;;;;26.83;32.12;100588.50;7668124;32;39904;-76
2023/09/05 09:30:37;;;;;;;4.05;2.30;;;;;;;27.35;31.03;100578.94;7668616;32;37935;-75
2023/09/05 09:34:55;;;;;;;3.65;1.85;;;;;;;27.65;30.20;100578.34;7667672;32;37103;-76
2023/09/05 09:39:12;;;;;;;4.22;2.12;;;;;;;27.41;30.63;100575.84;7658307;32;39075;-84
2023/09/05 09:43:32;;;;;;;3.03;1.90;;;;;;;27.96;29.40;100575.75;7680488;32;38514;-83
2023/09/05 09:47:52;;;;;;;2.78;1.80;;;;;;;27.71;29.68;100564.84;7681797;32;37813;-82
2023/09/05 09:52:12;;;;;;;2.72;1.85;;;;;;;28.35;28.88;100565.25;7675558;32;38101;-85
2023/09/05 09:56:29;;;;;;;3.53;1.90;;;;;;;28.23;29.39;100557.03;7668560;32;39129;-84
2023/09/05 10:00:47;;;;;;;4.07;1.85;;;;;;;28.60;28.36;100556.50;7676855;32;40390;-86
2023/09/05 10:05:05;;;;;;;5.40;2.20;;;;;;;28.91;28.02;100548.94;7671071;32;37699;-83
2023/09/05 10:09:22;;;;;;;6.90;1.95;;;;;;;28.39;28.15;100542.88;7669211;32;37318;-84
2023/09/05 10:13:40;;;;;;;5.40;2.15;;;;;;;29.08;29.06;100545.59;7671584;32;40046;-83
2023/09/05 10:17:57;;;;;;;2.87;1.77;;;;;;;29.47;27.66;100536.88;7672011;32;40080;-83
2023/09/05 10:22:16;;;;;;;3.15;1.45;;;;;;;29.68;26.56;100538.31;7674532;32;37649;-84
2023/09/05 10:26:33;;;;;;;4.68;1.60;;;;;;;30.06;25.50;100541.94;7671741;32;36929;-83
2023/09/05 10:30:53;;;;;;;3.12;1.58;;;;;;;30.45;25.15;100535.87;7683174;32;39403;-83
2023/09/05 10:35:10;;;;;;;2.80;1.80;;;;;;;30.74;25.14;100522.03;7685567;32;40757;-82
2023/09/05 10:39:32;;;;;;;3.20;1.60;;;;;;;30.60;24.37;100512.28;7685256;32;37802;-82
2023/09/05 10:43:55;;;;;;;2.83;1.75;;;;;;;31.04;24.40;100504.94;7684436;32;36711;-80
2023/09/05 10:48:15;;;;;;;3.42;1.67;;;;;;;29.58;26.16;100501.28;7685652;32;40053;-81
2023/09/05 10:52:31;;;;;;;4.15;1.73;;;;;;;30.23;25.55;100493.50;7685542;32;39963;-81
2023/09/05 10:56:48;;;;;;;4.45;1.80;;;;;;;30.87;24.07;100489.53;7684378;32;38083;-80
2023/09/05 11:01:44;;;;;;;2.75;1.77;;;;;;;30.83;24.34;100492.31;7685445;32;37829;-80
2023/09/05 11:06:16;;;;;;;5.53;1.60;;;;;;;30.42;24.76;100497.28;7685505;32;39327;-74
2023/09/05 11:10:38;;;;;;;3.25;1.83;;;;;;;30.30;25.56;100493.56;7685272;32;39872;-74
2023/09/05 11:14:54;;;;;;;3.30;1.80;;;;;;;31.06;24.73;100483.66;7685078;32;38647;-73
2023/09/05 11:19:11;;;;;;;3.47;1.80;;;;;;;31.45;24.91;100494.22;7684913;32;37961;-71
2023/09/05 11:23:29;;;;;;;2.80;1.85;;;;;;;31.90;23.82;100490.34;7685301;32;39335;-73
2023/09/05 11:27:49;;;;;;;2.95;1.83;;;;;;;31.97;23.75;100487.50;7685163;32;39837;-73
2023/09/05 11:32:12;;;;;;;4.22;1.92;;;;;;;31.92;24.49;100491.53;7684655;32;38139;-73
2023/09/05 11:36:29;;;;;;;2.72;1.85;;;;;;;32.27;22.75;100473.06;7685187;32;36875;-84
2023/09/05 11:40:55;;;;;;;3.90;2.00;;;;;;;32.18;23.17;100481.09;7683989;32;39233;-84
2023/09/05 11:45:19;;;;;;;2.87;1.70;;;;;;;32.50;22.59;100466.97;7683408;32;40960;-85
2023/09/05 11:49:36;;;;;;;2.78;1.87;;;;;;;32.86;22.18;100464.09;7679663;32;37954;-85
2023/09/05 11:53:52;;;;;;;4.15;1.90;;;;;;;32.63;22.62;100466.56;7679782;32;37199;-83
2023/09/05 11:58:10;;;;;;;4.87;1.70;;;;;;;33.03;21.99;100461.59;7682968;32;40422;-72
2023/09/05 12:02:26;;;;;;;2.42;1.67;;;;;;;32.71;22.08;100457.66;7684888;32;40722;-83
2023/09/05 12:06:47;;;;;;;7.72;2.25;;;;;;;32.34;22.67;100463.75;7684736;32;37647;-85
2023/09/05 12:11:04;;;;;;;4.62;2.10;;;;;;;33.18;22.89;100449.03;7684720;32;37032;-88
2023/09/05 12:15:33;;;;;;;2.60;1.60;;;;;;;32.81;23.38;100464.50;7684805;32;39309;-88
2023/09/05 12:19:50;;;;;;;4.43;1.80;;;;;;;33.68;21.76;100456.44;7684653;32;39526;-87
2023/09/05 12:24:18;;;;;;;2.00;1.55;;;;;;;33.66;20.71;100454.00;7684571;32;37761;-87
2023/09/05 12:28:35;;;;;;;2.42;1.87;;;;;;;32.96;22.20;100450.31;7683445;32;37735;-86
2023/09/05 12:32:57;;;;;;;4.78;1.75;;;;;;;33.74;22.29;100453.97;7684414;32;40049;-88
2023/09/05 12:37:14;;;;;;;2.83;1.77;;;;;;;33.86;21.86;100451.47;7684269;32;39981;-85
2023/09/05 12:41:30;;;;;;;8.02;2.00;;;;;;;33.62;21.61;100441.94;7684120;32;38104;-81
2023/09/05 12:45:49;;;;;;;5.62;2.45;;;;;;;32.94;22.28;100437.44;7683948;32;37467;-82
2023/09/05 12:50:16;;;;;;;3.42;1.70;;;;;;;32.62;23.41;100448.84;7684146;32;39346;-80
2023/09/05 12:54:33;;;;;;;9.55;2.03;;;;;;;33.11;22.76;100447.03;7675669;32;40693;-81
2023/09/05 12:58:49;;;;;;;3.85;2.03;;;;;;;32.50;23.12;100444.41;7673606;32;37805;-82
2023/09/05 13:03:10;;;;;;;2.87;1.75;;;;;;;32.44;23.66;100437.53;7675385;32;37773;-82
2023/09/05 13:07:28;;;;;;;3.05;1.83;;;;;;;32.67;23.67;100430.69;7674197;32;39361;-81
2023/09/05 13:11:45;;;;;;;3.55;2.03;;;;;;;33.02;22.60;100423.28;7683648;32;41016;-81
2023/09/05 13:16:01;;;;;;;4.12;1.80;;;;;;;33.23;22.94;100420.34;7678738;32;38705;-82
2023/09/05 13:20:18;;;;;;;1.70;1.55;;;;;;;33.64;22.83;100425.34;7669806;32;36998;-81
2023/09/05 13:24:34;;;;;;;7.12;1.83;;;;;;;33.07;22.89;100423.66;7668599;32;39304;-81
2023/09/05 13:28:52;;;;;;;3.30;2.00;;;;;;;34.10;21.51;100414.09;7663563;32;40912;-83
2023/09/05 13:33:11;;;;;;;4.93;2.00;;;;;;;34.59;21.41;100412.00;7659260;32;38129;-84
2023/09/05 13:37:27;;;;;;;3.28;1.90;;;;;;;34.29;20.56;100405.06;7662874;32;37385;-83
2023/09/05 13:41:43;;;;;;;5.87;2.42;;;;;;;33.59;21.79;100406.00;7684239;32;40019;-82
2023/09/05 13:46:00;;;;;;;5.07;2.37;;;;;;;34.03;22.50;100410.13;7685506;32;40013;-84
2023/09/05 13:50:20;;;;;;;3.53;1.48;;;;;;;34.51;21.10;100399.16;7685551;32;38856;-83
2023/09/05 13:54:37;;;;;;;3.78;2.00;;;;;;;34.16;21.11;100387.75;7685917;32;36899;-83
2023/09/05 13:58:54;;;;;;;2.37;1.73;;;;;;;34.50;21.36;100394.72;7685269;32;40091;-83
2023/09/05 14:03:10;;;;;;;2.17;1.60;;;;;;;34.83;20.06;100393.13;7686165;32;40604;-83
2023/09/05 14:07:27;;;;;;;2.75;1.62;;;;;;;35.15;20.52;100392.69;7684936;32;37805;-82
2023/09/05 14:11:43;;;;;;;2.33;1.83;;;;;;;33.82;20.91;100393.31;7685536;32;37279;-82
2023/09/05 14:16:01;;;;;;;2.62;1.70;;;;;;;33.84;21.73;100394.53;7685311;32;39457;-83
2023/09/05 14:20:17;;;;;;;2.60;1.70;;;;;;;33.51;22.46;100404.44;7685511;32;40765;-82
2023/09/05 14:24:34;;;;;;;2.60;1.95;;;;;;;33.99;21.70;100391.56;7685545;32;38144;-84
2023/09/05 14:28:51;;;;;;;2.28;1.70;;;;;;;33.48;21.31;100406.09;7685124;32;37927;-83
2023/09/05 14:33:08;;;;;;;2.85;1.65;;;;;;;32.97;22.53;100401.12;7685732;32;39080;-82
2023/09/05 14:37:25;;;;;;;4.30;1.70;;;;;;;32.54;23.32;100400.03;7681360;32;39698;-82
2023/09/05 14:41:41;;;;;;;2.12;1.60;;;;;;;32.48;23.32;100393.22;7685218;32;38751;-82
2023/09/05 14:45:59;;;;;;;5.87;1.80;;;;;;;32.68;23.30;100389.94;7685365;32;37834;-83
2023/09/05 14:50:16;;;;;;;3.60;1.40;;;;;;;33.13;22.95;100398.59;7683496;32;39288;-82
2023/09/05 14:54:33;;;;;;;2.40;1.40;;;;;;;32.49;24.25;100397.63;7684482;32;39725;-82
2023/09/05 14:58:49;;;;;;;2.00;1.60;;;;;;;32.62;24.01;100383.13;7684568;32;38011;-82
2023/09/05 15:03:06;;;;;;;5.45;1.73;;;;;;;33.16;23.68;100386.50;7684986;32;37835;-83
2023/09/05 15:07:23;;;;;;;2.80;1.58;;;;;;;32.97;23.24;100389.81;7684852;32;39914;-82
2023/09/05 15:11:42;;;;;;;2.97;1.60;;;;;;;33.07;23.11;100383.31;7683774;32;40066;-83
2023/09/05 15:15:58;;;;;;;2.50;1.70;;;;;;;32.94;23.77;100385.78;7684986;32;37948;-83
2023/09/05 15:20:15;;;;;;;2.92;1.58;;;;;;;32.87;23.12;100380.19;7684568;32;37709;-82
2023/09/05 15:24:32;;;;;;;2.95;1.50;;;;;;;32.29;23.58;100391.66;7685024;32;39113;-83
2023/09/05 15:28:48;;;;;;;3.15;1.73;;;;;;;31.71;24.63;100396.50;7684351;32;39945;-82
2023/09/05 15:33:05;;;;;;;2.03;1.50;;;;;;;32.10;24.16;100387.25;7684311;32;37976;-82
2023/09/05 15:37:23;;;;;;;2.97;1.55;;;;;;;32.40;23.89;100397.25;7677059;32;36537;-83
2023/09/05 15:41:39;;;;;;;2.92;1.70;;;;;;;32.34;24.64;100385.59;7683984;32;39650;-83
2023/09/05 15:45:57;;;;;;;1.73;1.33;;;;;;;32.31;24.45;100396.87;7684500;32;40870;-83
2023/09/05 15:50:13;;;;;;;3.22;2.00;;;;;;;32.33;23.96;100389.63;7682864;32;37822;-87
2023/09/05 15:54:32;;;;;;;2.05;1.60;;;;;;;32.36;23.99;100390.81;7689496;32;37954;-75
2023/09/05 15:58:49;;;;;;;5.95;1.77;;;;;;;32.22;24.45;100388.84;7689428;32;39118;-88
2023/09/05 16:03:05;;;;;;;2.30;1.50;;;;;;;32.28;24.04;100387.22;7695755;32;40877;-86
2023/09/05 16:07:22;;;;;;;4.18;1.92;;;;;;;32.38;24.10;100388.41;7713746;32;38067;-85
2023/09/05 16:11:39;;;;;;;2.28;1.55;;;;;;;32.30;24.60;100389.63;7711687;32;37111;-88
2023/09/05 16:15:55;;;;;;;2.83;1.73;;;;;;;32.18;24.12;100383.22;7711325;32;40242;-88
2023/09/05 16:20:14;;;;;;;3.45;1.60;;;;;;;32.10;24.82;100381.59;7711730;32;39902;-89
2023/09/05 16:24:30;;;;;;;1.65;1.50;;;;;;;32.17;24.51;100386.44;7710284;32;38892;-88
2023/09/05 16:28:46;;;;;;;2.90;1.77;;;;;;;31.95;25.10;100385.63;7711417;32;36947;-88
2023/09/05 16:33:03;;;;;;;2.30;1.33;;;;;;;32.06;25.02;100380.00;7710176;32;39064;-89
2023/09/05 16:37:19;;;;;;;2.55;1.70;;;;;;;31.84;25.06;100388.47;7704117;32;39973;-90
2023/09/05 16:41:35;;;;;;;1.92;1.55;;;;;;;31.57;25.54;100402.13;7710756;32;38701;-88
2023/09/05 16:45:57;;;;;;;3.53;1.80;;;;;;;31.03;26.24;100399.97;7710570;32;37087;-88
2023/09/05 16:50:13;;;;;;;3.30;1.92;;;;;;;30.69;26.85;100391.75;7711347;32;39408;-89
2023/09/05 16:54:29;;;;;;;6.57;1.92;;;;;;;30.34;27.63;100400.78;7710359;32;40893;-87
2023/09/05 16:58:45;;;;;;;6.75;1.90;;;;;;;29.90;28.21;100408.09;7712317;32;38113;-87
2023/09/05 17:03:02;;;;;;;4.72;2.00;;;;;;;29.56;28.83;100408.19;7710601;32;37434;-89
2023/09/05 17:07:21;;;;;;;3.53;1.60;;;;;;;29.47;29.27;100410.47;7710920;32;39864;-88
2023/09/05 17:11:37;;;;;;;3.10;1.60;;;;;;;29.34;29.56;100409.16;7710969;32;40337;-87
2023/09/05 17:15:54;;;;;;;3.22;1.50;;;;;;;28.89;30.18;100411.00;7711881;32;38181;-87
2023/09/05 17:20:10;;;;;;;4.55;2.05;;;;;;;28.59;30.90;100415.44;7713921;32;37003;-88
2023/09/05 17:24:27;;;;;;;4.12;1.83;;;;;;;28.03;31.93;100419.78;7712470;32;39839;-87
2023/09/05 17:28:43;;;;;;;2.22;1.55;;;;;;;27.65;32.61;100429.91;7713379;32;39903;-87
2023/09/05 17:33:00;;;;;;;5.80;2.08;;;;;;;27.39;32.77;100430.63;7712532;32;38138;-88
2023/09/05 17:37:16;;;;;;;3.90;1.87;;;;;;;27.08;33.72;100438.00;7705144;32;37837;-89
2023/09/05 17:41:32;;;;;;;3.00;1.80;;;;;;;26.75;34.58;100435.69;7713394;32;40198;-86
2023/09/05 17:45:48;;;;;;;6.07;2.30;;;;;;;26.24;35.91;100433.72;7712744;32;40779;-86
2023/09/05 17:50:06;;;;;;;8.65;2.10;;;;;;;25.91;36.49;100453.63;7713646;32;37826;-87
2023/09/05 17:54:22;;;;;;;3.15;1.85;;;;;;;25.54;37.35;100456.63;7712507;32;36973;-87
2023/09/05 17:58:38;;;;;;;13.57;2.50;;;;;;;25.48;37.41;100464.47;7689942;32;40007;-86
2023/09/05 18:02:54;;;;;;;4.75;2.10;;;;;;;25.33;37.69;100462.44;7687063;32;40770;-88
2023/09/05 18:07:11;;;;;;;2.83;2.03;;;;;;;25.28;37.56;100467.13;7692928;32;37990;-83
2023/09/05 18:11:27;;;;;;;5.32;2.10;;;;;;;24.91;38.58;100480.34;7691506;32;37266;-86
2023/09/05 18:15:45;;;;;;;3.42;1.90;;;;;;;24.89;38.57;100477.09;7692744;32;39781;-83
2023/09/05 18:20:02;;;;;;;4.68;2.20;;;;;;;24.77;38.47;100479.88;7689343;32;40318;-84
2023/09/05 18:24:19;;;;;;;3.10;1.80;;;;;;;24.57;39.04;100471.34;7684066;32;37879;-86
2023/09/05 18:28:37;;;;;;;3.58;2.05;;;;;;;24.47;39.14;100480.13;7663725;32;38001;-88
2023/09/05 18:32:53;;;;;;;4.22;2.20;;;;;;;24.45;39.24;100474.09;7684885;32;39269;-85
2023/09/05 18:37:10;;;;;;;7.07;2.80;;;;;;;24.14;39.77;100483.84;7684761;32;40836;-84
2023/09/05 18:41:27;;;;;;;5.00;2.30;;;;;;;23.98;40.31;100478.97;7683774;32;38023;-83
2023/09/05 18:45:51;;;;;;;2.83;2.12;;;;;;;23.97;40.29;100485.69;7684867;32;36638;-83
2023/09/05 18:50:09;;;;;;;6.95;2.50;;;;;;;23.79;41.09;100487.81;7685584;32;39301;-84
2023/09/05 18:54:25;;;;;;;4.97;2.35;;;;;;;23.65;41.70;100490.12;7685388;32;40693;-84
2023/09/05 18:58:41;;;;;;;5.32;2.50;;;;;;;23.46;42.52;100490.63;7685489;32;37619;-84
2023/09/05 19:02:57;;;;;;;6.53;2.45;;;;;;;23.37;43.00;100492.66;7685459;32;37732;-83
2023/09/05 19:07:14;;;;;;;4.12;2.45;;;;;;;23.23;43.44;100495.72;7685173;32;39524;-85
2023/09/05 19:11:31;;;;;;;6.35;2.60;;;;;;;23.08;43.88;100508.31;7684122;32;40808;-85
2023/09/05 19:15:48;;;;;;;7.55;2.50;;;;;;;22.90;44.44;100498.41;7685119;32;37918;-83
2023/09/05 19:20:08;;;;;;;2.97;2.20;;;;;;;22.73;44.80;100504.91;7685153;32;35817;-84
2023/09/05 19:24:25;;;;;;;3.03;2.08;;;;;;;22.82;44.46;100505.69;7685270;32;40020;-84
2023/09/05 19:28:41;;;;;;;3.17;2.33;;;;;;;22.66;44.87;100506.28;7685144;32;39867;-85
2023/09/05 19:32:58;;;;;;;3.60;2.12;;;;;;;22.52;45.23;100505.69;7673606;32;37904;-84
2023/09/05 19:37:15;;;;;;;4.57;1.95;;;;;;;22.63;44.71;100504.16;7671875;32;34818;-84
2023/09/05 19:41:32;;;;;;;4.93;3.12;;;;;;;22.42;45.09;100506.06;7673310;32;39353;-84
2023/09/05 19:45:51;;;;;;;4.45;2.53;;;;;;;22.46;44.73;100504.25;7673501;32;40199;-85
2023/09/05 19:50:09;;;;;;;4.22;2.35;;;;;;;22.44;44.85;100510.16;7675460;32;37984;-85
2023/09/05 19:54:27;;;;;;;5.75;2.72;;;;;;;22.22;45.52;100511.19;7675756;32;37206;-85